Time;durP1;ratioP1;P1;durP2;ratioP2;P2;SDS_P1;SDS_P2;PMS_P1;PMS_P2;Temp;Humidity;BMP_temperature;BMP_pressure;BME280_temperature;BME280_humidity;BME280_pressure;Samples;Min_cycle;Max_cycle;Signal;HPM_P1;HPM_P2
2021/06/28 00:00:03;;;;;;;4.8;3.1;;;;;;;17.79;93.57031;938.5006;;;;
2021/06/28 00:02:32;;;;;;;4.3;3.1;;;;;;;17.83;93.70605;938.4277;;;;
2021/06/28 00:04:56;;;;;;;3.8;2.8;;;;;;;17.87;92.95898;938.4503;;;;
2021/06/28 00:07:24;;;;;;;4.1;3.1;;;;;;;17.88;93.50879;938.4461;;;;
2021/06/28 00:09:49;;;;;;;4.2;2.8;;;;;;;17.86;93.94629;938.44;;;;
2021/06/28 00:12:16;;;;;;;4.8;3;;;;;;;17.79;93.87207;938.4249;;;;
2021/06/28 00:14:41;;;;;;;3.3;3;;;;;;;17.68;94.4873;938.4501;;;;
2021/06/28 00:17:08;;;;;;;3.8;3.3;;;;;;;17.72;94.27246;938.3522;;;;
2021/06/28 00:19:39;;;;;;;4.8;3.2;;;;;;;17.7;94.63086;938.3693;;;;
2021/06/28 00:22:04;;;;;;;5.5;3.3;;;;;;;17.74;94.80078;938.392;;;;
2021/06/28 00:24:31;;;;;;;3.9;3;;;;;;;17.72;94.70215;938.3505;;;;
2021/06/28 00:26:56;;;;;;;4.1;3.1;;;;;;;17.74;94.77832;938.3067;;;;
2021/06/28 00:29:24;;;;;;;3.6;2.9;;;;;;;17.57;95.34473;938.3122;;;;
2021/06/28 00:31:51;;;;;;;3.4;3.1;;;;;;;17.54;95.62891;938.3289;;;;
2021/06/28 00:34:18;;;;;;;5.1;3.1;;;;;;;17.61;94.59961;938.3727;;;;
2021/06/28 00:36:43;;;;;;;4.2;3.1;;;;;;;17.55;94.31738;938.3666;;;;
2021/06/28 00:39:10;;;;;;;4.2;3.6;;;;;;;17.54;94.43359;938.3642;;;;
2021/06/28 00:41:35;;;;;;;3.8;3.5;;;;;;;17.53;94.28027;938.4088;;;;
2021/06/28 00:44:01;;;;;;;3.8;3.3;;;;;;;17.38;95.08301;938.4174;;;;
2021/06/28 00:46:26;;;;;;;5.4;3.2;;;;;;;17.38;95.94336;938.4487;;;;
2021/06/28 00:48:52;;;;;;;4.5;3.4;;;;;;;17.33;95.87305;938.4648;;;;
2021/06/28 00:51:18;;;;;;;4.1;3.1;;;;;;;17.37;95.63574;938.4667;;;;
2021/06/28 00:53:44;;;;;;;3.2;2.9;;;;;;;17.38;95.47949;938.4826;;;;
2021/06/28 00:56:10;;;;;;;5.1;3;;;;;;;17.42;94.87012;938.4702;;;;
2021/06/28 00:58:38;;;;;;;4.2;3.1;;;;;;;17.41;95.26465;938.4942;;;;
2021/06/28 01:01:04;;;;;;;3.6;3.1;;;;;;;17.32;95.54688;938.4642;;;;
2021/06/28 01:03:30;;;;;;;4.2;3.2;;;;;;;17.24;96.22461;938.468;;;;
2021/06/28 01:05:55;;;;;;;4.1;3.2;;;;;;;16.85;98.20117;938.4709;;;;
2021/06/28 01:08:22;;;;;;;4.3;3.2;;;;;;;16.87;99.10938;938.44;;;;
2021/06/28 01:10:48;;;;;;;7.2;4.1;;;;;;;17;98.36133;938.3536;;;;
2021/06/28 01:13:15;;;;;;;3.8;3.4;;;;;;;17.06;97.45996;938.4575;;;;
2021/06/28 01:15:57;;;;;;;4;3.6;;;;;;;17.15;95.90332;938.4634;;;;
2021/06/28 01:18:25;;;;;;;4.6;3.6;;;;;;;17.09;95.74805;938.4355;;;;
2021/06/28 01:21:07;;;;;;;5.2;3.4;;;;;;;17.07;95.61914;938.4565;;;;
2021/06/28 01:23:16;;;;;;;8.5;3.4;;;;;;;17.14;96.14453;938.4241;;;;
2021/06/28 01:25:44;;;;;;;3.8;3.5;;;;;;;17.19;95.5752;938.3638;;;;
2021/06/28 01:28:29;;;;;;;3.7;3.4;;;;;;;17.22;95.57129;938.4433;;;;
2021/06/28 01:31:01;;;;;;;4;3.5;;;;;;;17.17;95.4668;938.402;;;;
2021/06/28 01:33:26;;;;;;;4.9;3.6;;;;;;;17.15;94.95313;938.4441;;;;
2021/06/28 01:35:52;;;;;;;4.8;3.5;;;;;;;17.13;95.21387;938.4221;;;;
2021/06/28 01:38:21;;;;;;;4.9;3.5;;;;;;;17.16;94.80371;938.4504;;;;
2021/06/28 01:40:55;;;;;;;3.9;3.6;;;;;;;17.1;94.97559;938.3846;;;;
2021/06/28 01:43:27;;;;;;;4.6;3.6;;;;;;;17.08;94.83301;938.3858;;;;
2021/06/28 01:45:54;;;;;;;4.8;3.9;;;;;;;17.08;94.70508;938.4058;;;;
2021/06/28 01:48:23;;;;;;;5.2;3.6;;;;;;;17.07;94.76172;938.3834;;;;
2021/06/28 01:50:53;;;;;;;4;3.3;;;;;;;16.85;95.83789;938.4266;;;;
2021/06/28 01:53:23;;;;;;;6.6;3.7;;;;;;;16.89;95.75391;938.41;;;;
2021/06/28 01:55:51;;;;;;;5.2;3.8;;;;;;;16.81;95.80762;938.3705;;;;
2021/06/28 01:58:20;;;;;;;6.3;3.6;;;;;;;16.69;96.33496;938.3964;;;;
2021/06/28 02:00:52;;;;;;;4.4;3.4;;;;;;;16.71;96.23535;938.3245;;;;
2021/06/28 02:03:20;;;;;;;6.4;3.7;;;;;;;16.48;97.05371;938.2676;;;;
2021/06/28 02:05:49;;;;;;;3.5;3.2;;;;;;;16.43;97.31934;938.2555;;;;
2021/06/28 02:08:14;;;;;;;3.9;3.3;;;;;;;16.37;97.79395;938.2703;;;;
2021/06/28 02:10:46;;;;;;;4.6;3.6;;;;;;;16.32;97.98926;938.2896;;;;
2021/06/28 02:13:09;;;;;;;4.6;3.8;;;;;;;16.22;98.99512;938.1948;;;;
2021/06/28 02:15:38;;;;;;;6.6;3.9;;;;;;;16.14;99.47559;938.2769;;;;
2021/06/28 02:18:06;;;;;;;5;3.8;;;;;;;16.23;98.77734;938.2256;;;;
2021/06/28 02:20:48;;;;;;;5.1;4.2;;;;;;;16.21;99.01563;938.1917;;;;
2021/06/28 02:23:18;;;;;;;5.5;4;;;;;;;16.23;98.61719;938.2062;;;;
2021/06/28 02:25:46;;;;;;;8.4;4.6;;;;;;;16.2;98.5625;938.228;;;;
2021/06/28 02:28:18;;;;;;;4.7;4.2;;;;;;;16.25;98.64648;938.2823;;;;
2021/06/28 02:30:50;;;;;;;5.2;4.2;;;;;;;16.27;98.31543;938.274;;;;
2021/06/28 02:33:16;;;;;;;4.6;3.7;;;;;;;16.28;98.17578;938.2707;;;;
2021/06/28 02:35:43;;;;;;;6.3;4.3;;;;;;;16.32;97.96484;938.2783;;;;
2021/06/28 02:38:11;;;;;;;5.3;3.9;;;;;;;16.4;96.97559;938.2531;;;;
2021/06/28 02:40:41;;;;;;;4.8;4;;;;;;;16.41;96.66895;938.281;;;;
2021/06/28 02:43:09;;;;;;;4.3;3.7;;;;;;;16.47;95.73047;938.3321;;;;
2021/06/28 02:48:24;;;;;;;5.5;4;;;;;;;16.38;95.5625;938.3996;;;;
2021/06/28 02:50:49;;;;;;;7.2;4.4;;;;;;;16.34;94.96191;938.4186;;;;
2021/06/28 02:53:16;;;;;;;8.2;3.7;;;;;;;16.35;94.75781;938.5936;;;;
2021/06/28 02:55:43;;;;;;;3.5;3.2;;;;;;;16.38;94.38184;938.537;;;;
2021/06/28 02:58:10;;;;;;;3.3;3;;;;;;;16.35;94.40625;938.601;;;;
2021/06/28 03:00:35;;;;;;;6.5;3.4;;;;;;;16.27;93.04883;938.5071;;;;
2021/06/28 03:03:00;;;;;;;5.3;3.3;;;;;;;16.29;92.76367;938.6017;;;;
2021/06/28 03:05:26;;;;;;;4.9;3.7;;;;;;;16.28;92.64844;938.6242;;;;
2021/06/28 03:07:54;;;;;;;4.3;3.9;;;;;;;16.27;93.07422;938.6259;;;;
2021/06/28 03:10:19;;;;;;;6;3.7;;;;;;;16.26;93.94922;938.5892;;;;
2021/06/28 03:12:49;;;;;;;4.2;3.3;;;;;;;16.2;94.22559;938.5905;;;;
2021/06/28 03:15:32;;;;;;;6.6;3.5;;;;;;;16.2;94.58398;938.637;;;;
2021/06/28 03:17:57;;;;;;;5.6;3.7;;;;;;;16.2;94.46973;938.6425;;;;
2021/06/28 03:20:25;;;;;;;4.2;3.8;;;;;;;16.16;94.78418;938.7121;;;;
2021/06/28 03:22:52;;;;;;;3.6;3.3;;;;;;;16.08;95.58789;938.7894;;;;
2021/06/28 03:25:23;;;;;;;7.3;3.5;;;;;;;16.08;95.7627;938.7877;;;;
2021/06/28 03:27:48;;;;;;;3.7;3.4;;;;;;;16.08;95.40234;938.8223;;;;
2021/06/28 03:30:16;;;;;;;4.5;3.4;;;;;;;16.12;95.35449;938.821;;;;
2021/06/28 03:32:42;;;;;;;4.4;3.8;;;;;;;16.12;95.27344;938.8162;;;;
2021/06/28 03:35:07;;;;;;;3.8;3.4;;;;;;;16.17;94.75;938.8365;;;;
2021/06/28 03:37:34;;;;;;;4.2;3.5;;;;;;;16.16;94.34473;938.8535;;;;
2021/06/28 03:39:59;;;;;;;3.7;3.4;;;;;;;16.13;94.59375;938.8394;;;;
2021/06/28 03:42:25;;;;;;;7.6;3.7;;;;;;;16.23;94.37207;938.8281;;;;
2021/06/28 03:44:50;;;;;;;4.6;3.1;;;;;;;16.26;93.63965;938.835;;;;
2021/06/28 03:47:18;;;;;;;5.7;3.4;;;;;;;16.16;93.97461;938.8688;;;;
2021/06/28 03:49:43;;;;;;;3.6;3.3;;;;;;;15.91;95.49219;938.8126;;;;
2021/06/28 03:52:11;;;;;;;5.5;3.5;;;;;;;15.82;96.42285;938.7765;;;;
2021/06/28 03:54:36;;;;;;;4.2;3.4;;;;;;;15.9;96.3457;938.7846;;;;
2021/06/28 03:57:02;;;;;;;5.9;3.6;;;;;;;15.97;96.14453;938.8264;;;;
2021/06/28 03:59:27;;;;;;;4.7;3.5;;;;;;;16.01;95.43359;938.8572;;;;
2021/06/28 04:02:30;;;;;;;5.5;3.5;;;;;;;16.14;94.87305;938.8136;;;;
2021/06/28 04:04:55;;;;;;;3.9;3;;;;;;;16.19;94.25781;938.8162;;;;
2021/06/28 04:07:21;;;;;;;4.5;3.6;;;;;;;16.22;93.79102;938.8564;;;;
2021/06/28 04:09:46;;;;;;;5.4;3.3;;;;;;;16.13;94.38477;938.7969;;;;
2021/06/28 04:12:14;;;;;;;3.7;3.3;;;;;;;15.9;95.67773;938.827;;;;
2021/06/28 04:14:41;;;;;;;3.9;3.5;;;;;;;16.01;95.59473;938.8284;;;;
2021/06/28 04:17:07;;;;;;;8.2;4.2;;;;;;;16.11;95.14453;938.7971;;;;
2021/06/28 04:19:34;;;;;;;5.8;4;;;;;;;16.19;94.43164;938.752;;;;
2021/06/28 04:21:59;;;;;;;6.6;4;;;;;;;16.31;93.61426;938.7316;;;;
2021/06/28 04:24:28;;;;;;;4.1;3.6;;;;;;;16.31;93.61426;938.7244;;;;
2021/06/28 04:26:53;;;;;;;4.4;3.8;;;;;;;16.32;93.83594;938.7411;;;;
2021/06/28 04:29:24;;;;;;;3.7;3.4;;;;;;;16.31;93.64844;938.7292;;;;
2021/06/28 04:31:50;;;;;;;5.6;3.8;;;;;;;16.36;93.12598;938.7254;;;;
2021/06/28 04:34:16;;;;;;;4;3.6;;;;;;;16.37;93.11621;938.7164;;;;
2021/06/28 04:36:41;;;;;;;6.5;3.6;;;;;;;16.09;94.50293;938.7355;;;;
2021/06/28 04:39:08;;;;;;;4.7;3.5;;;;;;;15.99;95.1748;938.713;;;;
2021/06/28 04:41:33;;;;;;;4;3.5;;;;;;;15.99;95.91504;938.6808;;;;
2021/06/28 04:44:00;;;;;;;4.1;3.7;;;;;;;15.98;95.85742;938.6833;;;;
2021/06/28 04:46:25;;;;;;;4.5;3.4;;;;;;;16;95.86133;938.6655;;;;
2021/06/28 04:48:50;;;;;;;6.7;3.9;;;;;;;16.2;95.29102;938.6337;;;;
2021/06/28 04:51:15;;;;;;;4.6;3.5;;;;;;;16.26;94.4834;938.5739;;;;
2021/06/28 04:53:43;;;;;;;4.8;3.4;;;;;;;16.15;94.62012;938.6223;;;;
2021/06/28 04:56:08;;;;;;;5.7;3.9;;;;;;;16.06;95.53711;938.6241;;;;
2021/06/28 04:58:37;;;;;;;4.5;4.1;;;;;;;16.19;95.3457;938.5801;;;;
2021/06/28 05:01:06;;;;;;;4.9;4.2;;;;;;;16.16;95.55957;938.6214;;;;
2021/06/28 05:03:31;;;;;;;7;4.6;;;;;;;16.17;96.97266;938.6189;;;;
2021/06/28 05:05:59;;;;;;;5.4;3.7;;;;;;;16.92;94.93652;938.5471;;;;
2021/06/28 05:08:24;;;;;;;5.1;2.7;;;;;;;18.3;86.87891;938.5192;;;;
2021/06/28 05:10:50;;;;;;;4.3;2.6;;;;;;;20.01;80.13379;938.5012;;;;
2021/06/28 05:13:15;;;;;;;4.1;2.4;;;;;;;21.39;73.6543;938.5186;;;;
2021/06/28 05:15:50;;;;;;;3.7;2.5;;;;;;;21.91;69.1123;938.5145;;;;
2021/06/28 05:18:18;;;;;;;3.5;2.4;;;;;;;21.41;73.06055;938.4797;;;;
2021/06/28 05:20:48;;;;;;;3;1.9;;;;;;;22.55;68.08594;938.5036;;;;
2021/06/28 05:23:14;;;;;;;3.8;1.9;;;;;;;22;67.56641;938.4247;;;;
2021/06/28 05:25:52;;;;;;;2.4;1.9;;;;;;;21.69;69.63965;938.4453;;;;
2021/06/28 05:28:19;;;;;;;2.9;1.8;;;;;;;23.84;62.11621;938.4219;;;;
2021/06/28 05:30:45;;;;;;;3.4;1.7;;;;;;;23.46;62.02734;938.405;;;;
2021/06/28 05:33:13;;;;;;;2.4;1.3;;;;;;;23.45;62.34375;938.3892;;;;
2021/06/28 05:35:38;;;;;;;1.7;1.5;;;;;;;24.2;61.10645;938.3614;;;;
2021/06/28 05:38:05;;;;;;;4.3;1.9;;;;;;;24.15;61.07617;938.3269;;;;
2021/06/28 05:40:30;;;;;;;4.2;1.5;;;;;;;25;58.15918;938.3445;;;;
2021/06/28 05:42:57;;;;;;;3.2;1.4;;;;;;;25.53;57.57813;938.2667;;;;
2021/06/28 05:45:22;;;;;;;2.3;1.5;;;;;;;27.2;52.12598;938.3376;;;;
2021/06/28 05:47:49;;;;;;;1.9;1.3;;;;;;;26.91;51.51172;938.2957;;;;
2021/06/28 05:50:15;;;;;;;2.8;1.4;;;;;;;26.21;53.33691;938.2589;;;;
2021/06/28 05:52:39;;;;;;;2.4;1.3;;;;;;;27.24;51.06348;938.2841;;;;
2021/06/28 05:55:04;;;;;;;2.5;1.6;;;;;;;28.5;47.25781;938.1902;;;;
2021/06/28 05:57:29;;;;;;;1.5;1.4;;;;;;;28.53;48.27246;938.1965;;;;
2021/06/28 05:59:59;;;;;;;3;1.1;;;;;;;28.27;47.63672;938.1439;;;;
2021/06/28 06:02:27;;;;;;;4.4;2;;;;;;;27.35;50.28027;938.1433;;;;
2021/06/28 06:04:51;;;;;;;2.6;1.3;;;;;;;26.65;51.19824;938.1547;;;;
2021/06/28 06:07:18;;;;;;;2;1.4;;;;;;;26.37;52.30176;938.1503;;;;
2021/06/28 06:09:45;;;;;;;2.7;1.8;;;;;;;27.18;52.07617;938.1442;;;;
2021/06/28 06:12:08;;;;;;;2.2;1.3;;;;;;;28.37;49.6582;938.0668;;;;
2021/06/28 06:14:34;;;;;;;2.3;1.5;;;;;;;27.43;49.74512;938.075;;;;
2021/06/28 06:17:01;;;;;;;1.9;1.4;;;;;;;25.28;55.74023;937.9579;;;;
2021/06/28 06:19:30;;;;;;;3.9;1.3;;;;;;;26.27;54.40723;938.0959;;;;
2021/06/28 06:21:55;;;;;;;2.8;1.5;;;;;;;24.95;57.57422;938.0209;;;;
2021/06/28 06:24:27;;;;;;;1.7;1.6;;;;;;;23.91;60.32422;937.9986;;;;
2021/06/28 06:26:48;;;;;;;4.3;1.5;;;;;;;24.06;60.39258;937.9573;;;;
2021/06/28 06:29:16;;;;;;;2.2;1.5;;;;;;;24.99;57.61523;937.9066;;;;
2021/06/28 06:31:40;;;;;;;3.9;1.5;;;;;;;25.32;56.50195;937.9745;;;;
2021/06/28 06:34:07;;;;;;;1.9;1.5;;;;;;;26.1;54.36426;937.9871;;;;
2021/06/28 06:36:32;;;;;;;2.9;1.5;;;;;;;25.93;54.07129;937.9734;;;;
2021/06/28 06:38:58;;;;;;;2.3;1.2;;;;;;;26.8;51.96191;937.9856;;;;
2021/06/28 06:41:23;;;;;;;1.7;1.6;;;;;;;27.18;51.54297;937.8914;;;;
2021/06/28 06:43:50;;;;;;;3.1;1.6;;;;;;;27.24;51.57324;937.8736;;;;
2021/06/28 06:46:15;;;;;;;2.2;1.5;;;;;;;27.87;48.93848;937.8269;;;;
2021/06/28 06:48:42;;;;;;;1.6;1.4;;;;;;;29.57;44.72461;937.8362;;;;
2021/06/28 06:51:07;;;;;;;4.3;1.7;;;;;;;28.45;47.5625;937.823;;;;
2021/06/28 06:53:32;;;;;;;1.8;1.4;;;;;;;28.57;48.08594;937.8205;;;;
2021/06/28 06:55:57;;;;;;;1.6;1.5;;;;;;;26.5;50.7666;937.8259;;;;
2021/06/28 06:58:24;;;;;;;3.1;1.6;;;;;;;26.9;50.74023;937.813;;;;
2021/06/28 07:00:50;;;;;;;1.9;1.3;;;;;;;29.33;44.87988;937.7714;;;;
2021/06/28 07:03:15;;;;;;;2.1;1.6;;;;;;;29.46;44.95215;937.7637;;;;
2021/06/28 07:05:40;;;;;;;2.7;1.5;;;;;;;30.91;41.80859;937.7822;;;;
2021/06/28 07:08:07;;;;;;;1.9;1.4;;;;;;;29.21;44.18945;937.7434;;;;
2021/06/28 07:10:32;;;;;;;3.4;1.4;;;;;;;28.69;46.68359;937.6624;;;;
2021/06/28 07:13:01;;;;;;;2.6;1.4;;;;;;;31.06;41.98926;937.6671;;;;
2021/06/28 07:15:29;;;;;;;2.4;1.4;;;;;;;31.74;40.41211;937.6339;;;;
2021/06/28 07:17:56;;;;;;;1.6;1.4;;;;;;;30.57;41.19141;937.6647;;;;
2021/06/28 07:20:26;;;;;;;2;1.4;;;;;;;32.2;39.29004;937.6139;;;;
2021/06/28 07:22:51;;;;;;;2.2;1.4;;;;;;;31.85;39.59473;937.5822;;;;
2021/06/28 07:25:19;;;;;;;1.4;1.3;;;;;;;34.15;37.18262;937.6404;;;;
2021/06/28 07:27:44;;;;;;;2;1.5;;;;;;;34.68;33.54883;937.6423;;;;
2021/06/28 07:30:15;;;;;;;1.5;1.2;;;;;;;31.87;37.28418;937.5885;;;;
2021/06/28 07:32:40;;;;;;;3.4;1.4;;;;;;;33.29;38.42285;937.5772;;;;
2021/06/28 07:35:09;;;;;;;1.6;1.4;;;;;;;33.14;36.11523;937.5848;;;;
2021/06/28 07:37:34;;;;;;;2.1;1.3;;;;;;;33.17;34.53125;937.5419;;;;
2021/06/28 07:40:01;;;;;;;2.3;1.5;;;;;;;33.31;36.05664;937.5122;;;;
2021/06/28 07:42:26;;;;;;;1.7;1.6;;;;;;;32.14;37.6416;937.5375;;;;
2021/06/28 07:44:52;;;;;;;1.7;1.6;;;;;;;35.39;33.38379;937.5952;;;;
2021/06/28 07:47:17;;;;;;;1.5;1.3;;;;;;;36.6;32.34668;937.5558;;;;
2021/06/28 07:49:44;;;;;;;1.7;1.5;;;;;;;36.18;32.78906;937.5258;;;;
2021/06/28 07:52:10;;;;;;;2;1.4;;;;;;;35.45;34.26953;937.5105;;;;
2021/06/28 07:54:39;;;;;;;1.1;1.1;;;;;;;35.13;35.94629;937.4536;;;;
2021/06/28 07:57:02;;;;;;;2;1.5;;;;;;;35.83;33.35547;937.5093;;;;
2021/06/28 07:59:28;;;;;;;1.3;1.3;;;;;;;36.59;33.16797;937.4919;;;;
2021/06/28 08:01:54;;;;;;;1.7;1.4;;;;;;;35.49;35.33594;937.4213;;;;
2021/06/28 08:04:20;;;;;;;1.5;1.4;;;;;;;35.41;32.91406;937.4045;;;;
2021/06/28 08:06:44;;;;;;;2.5;1.4;;;;;;;36.16;33.66992;937.3264;;;;
2021/06/28 08:09:11;;;;;;;1.6;1.5;;;;;;;36.22;34.375;937.3494;;;;
2021/06/28 08:11:36;;;;;;;3.2;1.5;;;;;;;36.73;32.82813;937.2675;;;;
2021/06/28 08:14:04;;;;;;;2.5;1.6;;;;;;;36.63;33.60645;937.2563;;;;
2021/06/28 08:16:31;;;;;;;1.4;1.3;;;;;;;36.5;31.97559;937.1964;;;;
2021/06/28 08:18:59;;;;;;;1.4;1.3;;;;;;;38.27;31.2002;937.165;;;;
2021/06/28 08:21:24;;;;;;;7.6;2;;;;;;;37.73;31.7959;937.1481;;;;
2021/06/28 08:23:50;;;;;;;2.3;1.3;;;;;;;37.45;29.88477;937.097;;;;
2021/06/28 08:26:16;;;;;;;1.8;1.3;;;;;;;36.88;32.68066;937.0514;;;;
2021/06/28 08:28:42;;;;;;;2.2;1.4;;;;;;;37.98;30.74316;937.0453;;;;
2021/06/28 08:31:07;;;;;;;3.3;1.4;;;;;;;37.55;30.77539;936.9939;;;;
2021/06/28 08:33:33;;;;;;;2;1.4;;;;;;;37.56;29.27246;936.8965;;;;
2021/06/28 08:35:59;;;;;;;2.9;1.5;;;;;;;35.79;34.73047;936.8948;;;;
2021/06/28 08:38:25;;;;;;;1.6;1.5;;;;;;;36.25;32.68457;936.8604;;;;
2021/06/28 08:40:53;;;;;;;2.4;1.6;;;;;;;35.87;32.43945;936.8675;;;;
2021/06/28 08:43:18;;;;;;;2.5;1.5;;;;;;;35.67;33.74316;936.8764;;;;
2021/06/28 08:45:47;;;;;;;1.4;1.3;;;;;;;35.5;34.01953;936.9111;;;;
2021/06/28 08:48:13;;;;;;;1.8;1.4;;;;;;;34.6;34.00098;936.873;;;;
2021/06/28 08:50:39;;;;;;;3.9;1.6;;;;;;;35.68;32.82422;936.872;;;;
2021/06/28 08:53:04;;;;;;;2.7;1.9;;;;;;;34.62;36.11133;936.8586;;;;
2021/06/28 08:55:30;;;;;;;2.9;1.4;;;;;;;33.8;36.76953;936.8458;;;;
2021/06/28 08:57:55;;;;;;;2.2;1.5;;;;;;;34.56;37.17969;936.8375;;;;
2021/06/28 09:00:20;;;;;;;2;1.6;;;;;;;32.48;42.50586;936.8474;;;;
2021/06/28 09:02:45;;;;;;;2.4;1.5;;;;;;;33.47;38.24512;936.7541;;;;
2021/06/28 09:05:12;;;;;;;1.8;1.4;;;;;;;33.27;37.39941;936.7505;;;;
2021/06/28 09:07:36;;;;;;;1.6;1.5;;;;;;;33.47;39.44727;936.7647;;;;
2021/06/28 09:10:05;;;;;;;1.7;1.5;;;;;;;32.73;41.50781;936.7905;;;;
2021/06/28 09:12:30;;;;;;;2.2;1.5;;;;;;;33.23;37.66016;936.7408;;;;
2021/06/28 09:14:56;;;;;;;1.5;1.4;;;;;;;34.52;35.33301;936.7825;;;;
2021/06/28 09:17:21;;;;;;;2.6;1.3;;;;;;;33.82;35.51855;936.7509;;;;
2021/06/28 09:19:46;;;;;;;1.5;1.4;;;;;;;34.67;37.04395;936.7933;;;;
2021/06/28 09:22:13;;;;;;;1.5;1.4;;;;;;;34.59;35.18164;936.8392;;;;
2021/06/28 09:24:44;;;;;;;2.4;1.5;;;;;;;34.79;35.83594;936.8588;;;;
2021/06/28 09:27:06;;;;;;;2.5;1.4;;;;;;;34.78;34.0752;936.8253;;;;
2021/06/28 09:29:35;;;;;;;1.5;1.4;;;;;;;34.75;35.31445;936.7531;;;;
2021/06/28 09:32:04;;;;;;;1.8;1.4;;;;;;;34.76;37.95605;936.7505;;;;
2021/06/28 09:34:29;;;;;;;4.3;1.5;;;;;;;33.82;33.88281;936.6772;;;;
2021/06/28 09:36:55;;;;;;;2.2;1.5;;;;;;;33.64;37.29785;936.6459;;;;
2021/06/28 09:39:21;;;;;;;1.9;1.2;;;;;;;33.76;35.85254;936.6945;;;;
2021/06/28 09:41:46;;;;;;;2.9;1.6;;;;;;;33.2;38.8125;936.6284;;;;
2021/06/28 09:44:11;;;;;;;3.8;1.9;;;;;;;32.69;39.41602;936.6202;;;;
2021/06/28 09:46:37;;;;;;;2;1.7;;;;;;;33.52;37.41992;936.5786;;;;
2021/06/28 09:49:01;;;;;;;1.9;1.6;;;;;;;33.78;36.06934;936.5826;;;;
2021/06/28 09:51:27;;;;;;;2.8;1.9;;;;;;;32.85;36.37988;936.5223;;;;
2021/06/28 09:53:52;;;;;;;3.7;1.6;;;;;;;32.68;41.76758;936.5648;;;;
2021/06/28 09:56:17;;;;;;;2.9;1.7;;;;;;;32.82;38.80273;936.5481;;;;
2021/06/28 09:58:43;;;;;;;1.7;1.6;;;;;;;32.63;39.21875;936.5363;;;;
2021/06/28 10:01:09;;;;;;;1.8;1.6;;;;;;;31.35;43.30859;936.531;;;;
2021/06/28 10:03:38;;;;;;;1.5;1.4;;;;;;;31.79;42.52441;936.4956;;;;
2021/06/28 10:06:08;;;;;;;1.7;1.6;;;;;;;32.35;39.77051;936.4255;;;;
2021/06/28 10:08:24;;;;;;;1.8;1.7;;;;;;;31.43;43.14941;936.4627;;;;
2021/06/28 10:10:51;;;;;;;1.6;1.4;;;;;;;31.62;44.20898;936.4127;;;;
2021/06/28 10:13:17;;;;;;;3.3;1.8;;;;;;;31.62;42.14941;936.4044;;;;
2021/06/28 10:15:46;;;;;;;2;1.7;;;;;;;31.69;40.01172;936.3983;;;;
2021/06/28 10:18:15;;;;;;;1.9;1.6;;;;;;;31.45;43.56934;936.3845;;;;
2021/06/28 10:20:40;;;;;;;2.6;1.8;;;;;;;31.68;41.6875;936.3853;;;;
2021/06/28 10:23:07;;;;;;;2.1;2;;;;;;;30.87;44.375;936.3879;;;;
2021/06/28 10:25:32;;;;;;;2.1;1.7;;;;;;;31.31;43.65332;936.3569;;;;
2021/06/28 10:27:59;;;;;;;6.8;2.7;;;;;;;31.15;42.95605;936.323;;;;
2021/06/28 10:30:25;;;;;;;2.7;2;;;;;;;30.99;45.21094;936.2502;;;;
2021/06/28 10:32:51;;;;;;;2.3;1.7;;;;;;;30.85;44.76758;936.2667;;;;
2021/06/28 10:35:16;;;;;;;2.1;1.9;;;;;;;30.38;48.3623;936.2594;;;;
2021/06/28 10:37:41;;;;;;;2;1.9;;;;;;;30.19;48.67676;936.228;;;;
2021/06/28 10:40:06;;;;;;;6.4;3;;;;;;;30.23;50.13672;936.195;;;;
2021/06/28 10:42:32;;;;;;;4;2.2;;;;;;;30.36;48.22949;936.1531;;;;
2021/06/28 10:44:57;;;;;;;3.6;1.9;;;;;;;30.36;47.13086;936.0933;;;;
2021/06/28 10:47:22;;;;;;;4;2.4;;;;;;;30.35;50.35449;936.1216;;;;
2021/06/28 10:49:57;;;;;;;4.6;2;;;;;;;30.3;51.94824;936.065;;;;
2021/06/28 10:52:24;;;;;;;3.7;2.1;;;;;;;29.94;52.15723;936.0822;;;;
2021/06/28 10:54:49;;;;;;;3.1;1.8;;;;;;;29.97;50.33496;936.0319;;;;
2021/06/28 10:57:15;;;;;;;2.1;1.9;;;;;;;29.95;51.03711;936.0142;;;;
2021/06/28 10:59:40;;;;;;;2.3;2.1;;;;;;;29.93;52.34863;935.989;;;;
2021/06/28 11:02:06;;;;;;;2.9;1.9;;;;;;;29.98;51.38574;935.9933;;;;
2021/06/28 11:04:31;;;;;;;2.4;2.2;;;;;;;29.47;52.49609;935.8347;;;;
2021/06/28 11:06:56;;;;;;;2.4;2.1;;;;;;;29.75;49.0957;935.8345;;;;
2021/06/28 11:09:23;;;;;;;2.7;2;;;;;;;29.43;52.33691;935.851;;;;
2021/06/28 11:11:48;;;;;;;2.2;2;;;;;;;29.57;51.57813;935.7589;;;;
2021/06/28 11:14:13;;;;;;;2.3;2.1;;;;;;;29.66;51.25488;935.8179;;;;
2021/06/28 11:16:42;;;;;;;2.4;2.2;;;;;;;29.71;51.95215;935.7491;;;;
2021/06/28 11:19:10;;;;;;;3.6;2.3;;;;;;;29.63;49.12988;935.6812;;;;
2021/06/28 11:21:37;;;;;;;2.6;2;;;;;;;29.97;48.4502;935.6433;;;;
2021/06/28 11:24:02;;;;;;;4.4;2;;;;;;;30.06;48.53125;935.6115;;;;
2021/06/28 11:26:28;;;;;;;2.2;2;;;;;;;29.71;51.72559;935.6026;;;;
2021/06/28 11:28:53;;;;;;;3.2;2;;;;;;;29.89;52.24805;935.5928;;;;
2021/06/28 11:31:18;;;;;;;2.4;2.2;;;;;;;30.05;49.00879;935.532;;;;
2021/06/28 11:33:45;;;;;;;2.1;2;;;;;;;30.32;48.44043;935.567;;;;
2021/06/28 11:36:10;;;;;;;2.2;2;;;;;;;30.17;50.19141;935.5375;;;;
2021/06/28 11:38:37;;;;;;;2.7;2;;;;;;;30.49;47.2998;935.5029;;;;
2021/06/28 11:41:06;;;;;;;1.8;1.7;;;;;;;30.46;48.00195;935.436;;;;
2021/06/28 11:43:31;;;;;;;2.6;2;;;;;;;30.33;48.99023;935.3628;;;;
2021/06/28 11:46:00;;;;;;;2.2;2;;;;;;;30.52;47.98438;935.3041;;;;
2021/06/28 11:48:25;;;;;;;1.9;1.8;;;;;;;30.46;47.10547;935.3253;;;;
2021/06/28 11:50:53;;;;;;;4.1;2;;;;;;;30.5;48.45996;935.3105;;;;
2021/06/28 11:53:18;;;;;;;2.3;1.9;;;;;;;30.41;47.25586;935.291;;;;
2021/06/28 11:55:44;;;;;;;2.4;2;;;;;;;29.7;50.75781;935.3541;;;;
2021/06/28 11:58:12;;;;;;;1.9;1.8;;;;;;;29.96;50.67969;935.2776;;;;
2021/06/28 12:00:37;;;;;;;3.7;1.8;;;;;;;30.55;47.82031;935.2656;;;;
2021/06/28 12:03:04;;;;;;;3.8;1.7;;;;;;;30.66;49.3252;935.2288;;;;
2021/06/28 12:05:30;;;;;;;2.4;1.6;;;;;;;30.74;45.9873;935.18;;;;
2021/06/28 12:07:54;;;;;;;2.4;1.8;;;;;;;30.92;47.61914;935.2134;;;;
2021/06/28 12:10:22;;;;;;;2.1;1.9;;;;;;;30.31;48.33203;935.1375;;;;
2021/06/28 12:12:47;;;;;;;1.8;1.7;;;;;;;30.36;46.9873;935.093;;;;
2021/06/28 12:15:12;;;;;;;2.2;2;;;;;;;30.61;46.00977;935.0882;;;;
2021/06/28 12:17:40;;;;;;;4.1;1.8;;;;;;;30.94;46.52148;935.1124;;;;
2021/06/28 12:20:05;;;;;;;3.1;1.9;;;;;;;31.01;45.62109;935.0125;;;;
2021/06/28 12:22:32;;;;;;;2.1;2;;;;;;;30.98;45.9043;935.027;;;;
2021/06/28 12:24:57;;;;;;;3.4;1.8;;;;;;;30.94;47.02441;935.0538;;;;
2021/06/28 12:27:23;;;;;;;2.1;1.9;;;;;;;30.96;45.74707;934.9871;;;;
2021/06/28 12:29:49;;;;;;;1.9;1.8;;;;;;;31.03;45.28809;934.9962;;;;
2021/06/28 12:32:16;;;;;;;1.9;1.7;;;;;;;30.99;45.30762;934.9501;;;;
2021/06/28 12:34:42;;;;;;;2.2;2;;;;;;;30.7;45.30273;934.9108;;;;
2021/06/28 12:37:07;;;;;;;2.7;1.8;;;;;;;30.85;47.13477;934.9378;;;;
2021/06/28 12:39:32;;;;;;;2.4;2.2;;;;;;;30.57;49.31641;934.8745;;;;
2021/06/28 12:41:58;;;;;;;1.8;1.7;;;;;;;30.92;47.36914;934.8776;;;;
2021/06/28 12:44:23;;;;;;;2.2;2;;;;;;;30.99;44.6377;934.843;;;;
2021/06/28 12:46:48;;;;;;;2.5;1.8;;;;;;;30.95;44.68164;934.8144;;;;
2021/06/28 12:49:15;;;;;;;2.1;1.9;;;;;;;31.14;44.99902;934.8247;;;;
2021/06/28 12:51:40;;;;;;;1.9;1.8;;;;;;;31.13;46.26563;934.8286;;;;
2021/06/28 12:56:30;;;;;;;2;1.9;;;;;;;30.91;44.78613;934.7402;;;;
2021/06/28 12:58:57;;;;;;;1.8;1.7;;;;;;;31.19;45.4834;934.7665;;;;
2021/06/28 13:01:20;;;;;;;2;1.8;;;;;;;30.99;48.45215;934.7762;;;;
2021/06/28 13:04:01;;;;;;;2.2;2;;;;;;;30.96;47.98242;934.6897;;;;
2021/06/28 13:06:10;;;;;;;4.3;1.9;;;;;;;30.93;45.14648;934.7692;;;;
2021/06/28 13:08:36;;;;;;;2;1.8;;;;;;;30.77;47.88965;934.6825;;;;
2021/06/28 13:11:02;;;;;;;2.4;2.1;;;;;;;31.17;44.10449;934.7842;;;;
2021/06/28 13:13:30;;;;;;;2.3;2.1;;;;;;;30.91;44.49902;934.7517;;;;
2021/06/28 13:16:03;;;;;;;2.4;2.2;;;;;;;30.65;45.04688;934.7094;;;;
2021/06/28 13:18:28;;;;;;;3;2;;;;;;;30.54;46.56445;934.692;;;;
2021/06/28 13:20:55;;;;;;;1.8;1.7;;;;;;;30.69;46.77051;934.63;;;;
2021/06/28 13:23:20;;;;;;;2;1.9;;;;;;;30.78;46.76855;934.6397;;;;
2021/06/28 13:26:25;;;;;;;2.3;1.9;;;;;;;30.78;46.57813;934.6195;;;;
2021/06/28 13:28:44;;;;;;;2.2;1.8;;;;;;;30.82;44.9668;934.6326;;;;
2021/06/28 13:31:13;;;;;;;2.9;1.9;;;;;;;30.51;45.11621;934.6437;;;;
2021/06/28 13:33:41;;;;;;;2.1;1.9;;;;;;;30.21;45.48047;934.6411;;;;
2021/06/28 13:36:06;;;;;;;2.2;2;;;;;;;30.26;46.62012;934.6013;;;;
2021/06/28 13:38:31;;;;;;;4.4;1.9;;;;;;;30.17;46.94434;934.626;;;;
2021/06/28 13:40:58;;;;;;;5.3;2.6;;;;;;;29.79;47.02441;934.5888;;;;
2021/06/28 13:43:24;;;;;;;2.4;2.2;;;;;;;29.7;48.85156;934.5559;;;;
2021/06/28 13:45:50;;;;;;;3.2;2;;;;;;;29.88;48.18945;934.4706;;;;
2021/06/28 13:48:15;;;;;;;3;2;;;;;;;29.9;49.75586;934.5027;;;;
2021/06/28 13:50:41;;;;;;;2.5;2;;;;;;;29.85;49.12891;934.5336;;;;
2021/06/28 13:53:06;;;;;;;2.1;1.9;;;;;;;29.79;48.25293;934.5848;;;;
2021/06/28 13:55:32;;;;;;;2.1;1.9;;;;;;;29.66;48.30957;934.5703;;;;
2021/06/28 13:57:57;;;;;;;3.8;1.9;;;;;;;29.71;48.23145;934.5992;;;;
2021/06/28 14:00:25;;;;;;;2.2;2;;;;;;;29.77;48.51367;934.5377;;;;
2021/06/28 14:02:48;;;;;;;2.4;2;;;;;;;29.58;49.15918;934.5948;;;;
2021/06/28 14:05:17;;;;;;;3.5;2;;;;;;;29.87;48.32031;934.6306;;;;
2021/06/28 14:07:42;;;;;;;1.9;1.8;;;;;;;30.08;47.10254;934.6592;;;;
2021/06/28 14:10:10;;;;;;;2.7;2.1;;;;;;;30.14;46.42871;934.5687;;;;
2021/06/28 14:12:34;;;;;;;2.1;2;;;;;;;30.13;46.52246;934.5633;;;;
2021/06/28 14:15:00;;;;;;;2.1;2;;;;;;;30.35;46.64063;934.6106;;;;
2021/06/28 14:17:25;;;;;;;3.4;2.4;;;;;;;30.34;46.45996;934.6766;;;;
2021/06/28 14:19:52;;;;;;;4;2.3;;;;;;;30.24;46.70117;934.6349;;;;
2021/06/28 14:22:17;;;;;;;2.3;2.1;;;;;;;30.51;45.91602;934.7078;;;;
2021/06/28 14:24:45;;;;;;;2.2;1.9;;;;;;;30.4;44.97363;934.6772;;;;
2021/06/28 14:27:10;;;;;;;2.9;2.1;;;;;;;30.26;45.10352;934.6423;;;;